sensor_id;sensor_type;location;lat;lon;timestamp;pressure;altitude;pressure_sealevel;temperature;humidity
71299;BME280;59083;47.974;21.722;2022-12-10T00:02:35;98990.34;;;6.43;100.00
71299;BME280;59083;47.974;21.722;2022-12-10T00:05:37;98986.66;;;6.44;100.00
71299;BME280;59083;47.974;21.722;2022-12-10T00:08:38;98983.81;;;6.46;100.00
71299;BME280;59083;47.974;21.722;2022-12-10T00:11:40;98974.47;;;6.50;100.00
71299;BME280;59083;47.974;21.722;2022-12-10T00:14:42;98979.75;;;6.50;100.00
71299;BME280;59083;47.974;21.722;2022-12-10T00:17:43;98971.69;;;6.58;100.00
71299;BME280;59083;47.974;21.722;2022-12-10T00:20:44;98964.59;;;6.65;100.00
71299;BME280;59083;47.974;21.722;2022-12-10T00:23:46;98975.62;;;6.75;100.00
71299;BME280;59083;47.974;21.722;2022-12-10T00:26:47;98976.28;;;6.90;100.00
71299;BME280;59083;47.974;21.722;2022-12-10T00:29:48;98973.47;;;6.98;100.00
71299;BME280;59083;47.974;21.722;2022-12-10T00:32:49;98960.47;;;7.17;100.00
71299;BME280;59083;47.974;21.722;2022-12-10T00:35:51;98949.28;;;7.41;100.00
71299;BME280;59083;47.974;21.722;2022-12-10T00:38:52;98953.41;;;7.57;100.00
71299;BME280;59083;47.974;21.722;2022-12-10T00:41:53;98941.37;;;7.74;100.00
71299;BME280;59083;47.974;21.722;2022-12-10T00:44:55;98944.81;;;7.94;100.00
71299;BME280;59083;47.974;21.722;2022-12-10T00:47:57;98942.97;;;8.08;100.00
71299;BME280;59083;47.974;21.722;2022-12-10T00:54:00;98931.28;;;8.22;100.00
71299;BME280;59083;47.974;21.722;2022-12-10T00:57:01;98935.16;;;8.26;100.00
71299;BME280;59083;47.974;21.722;2022-12-10T01:00:03;98934.75;;;8.29;100.00
71299;BME280;59083;47.974;21.722;2022-12-10T01:03:05;98918.84;;;8.36;100.00
71299;BME280;59083;47.974;21.722;2022-12-10T01:06:19;98920.44;;;8.43;100.00
71299;BME280;59083;47.974;21.722;2022-12-10T01:09:23;98917.78;;;8.43;100.00
71299;BME280;59083;47.974;21.722;2022-12-10T01:12:27;98929.44;;;8.42;100.00
71299;BME280;59083;47.974;21.722;2022-12-10T01:15:29;98923.69;;;8.45;100.00
71299;BME280;59083;47.974;21.722;2022-12-10T01:18:31;98921.25;;;8.44;100.00
71299;BME280;59083;47.974;21.722;2022-12-10T01:21:32;98924.53;;;8.46;100.00
71299;BME280;59083;47.974;21.722;2022-12-10T01:24:35;98923.31;;;8.48;100.00
71299;BME280;59083;47.974;21.722;2022-12-10T01:27:36;98924.91;;;8.49;100.00
71299;BME280;59083;47.974;21.722;2022-12-10T01:30:38;98926.13;;;8.53;100.00
71299;BME280;59083;47.974;21.722;2022-12-10T01:33:39;98915.53;;;8.53;100.00
71299;BME280;59083;47.974;21.722;2022-12-10T01:36:43;98910.22;;;8.53;100.00
71299;BME280;59083;47.974;21.722;2022-12-10T01:39:45;98913.88;;;8.52;100.00
71299;BME280;59083;47.974;21.722;2022-12-10T01:42:47;98918.34;;;8.58;100.00
71299;BME280;59083;47.974;21.722;2022-12-10T01:45:49;98912.22;;;8.58;100.00
71299;BME280;59083;47.974;21.722;2022-12-10T01:48:50;98916.91;;;8.62;100.00
71299;BME280;59083;47.974;21.722;2022-12-10T01:51:54;98913.59;;;8.67;100.00
71299;BME280;59083;47.974;21.722;2022-12-10T01:54:56;98920.97;;;8.65;100.00
71299;BME280;59083;47.974;21.722;2022-12-10T01:57:57;98918.31;;;8.65;100.00
71299;BME280;59083;47.974;21.722;2022-12-10T02:01:04;98916.25;;;8.67;100.00
71299;BME280;59083;47.974;21.722;2022-12-10T02:14:06;98929.94;;;8.70;100.00
71299;BME280;59083;47.974;21.722;2022-12-10T02:17:19;98918.50;;;8.70;100.00
71299;BME280;59083;47.974;21.722;2022-12-10T02:20:46;98928.06;;;8.78;100.00
71299;BME280;59083;47.974;21.722;2022-12-10T02:23:54;98922.72;;;8.84;100.00
71299;BME280;59083;47.974;21.722;2022-12-10T02:27:20;98923.97;;;8.82;100.00
71299;BME280;59083;47.974;21.722;2022-12-10T02:30:23;98931.50;;;8.85;100.00
71299;BME280;59083;47.974;21.722;2022-12-10T02:33:25;98925.59;;;8.83;100.00
71299;BME280;59083;47.974;21.722;2022-12-10T02:36:33;98926.37;;;8.90;100.00
71299;BME280;59083;47.974;21.722;2022-12-10T02:39:39;98926.37;;;8.90;100.00
71299;BME280;59083;47.974;21.722;2022-12-10T02:42:44;98934.94;;;8.92;100.00
71299;BME280;59083;47.974;21.722;2022-12-10T02:45:48;98929.62;;;8.92;100.00
71299;BME280;59083;47.974;21.722;2022-12-10T02:48:52;98929.59;;;8.98;100.00
71299;BME280;59083;47.974;21.722;2022-12-10T02:51:53;98929.59;;;8.98;100.00
71299;BME280;59083;47.974;21.722;2022-12-10T02:54:55;98936.13;;;9.02;100.00
71299;BME280;59083;47.974;21.722;2022-12-10T02:58:10;98936.50;;;9.06;100.00
71299;BME280;59083;47.974;21.722;2022-12-10T03:01:30;98931.63;;;9.03;100.00
71299;BME280;59083;47.974;21.722;2022-12-10T03:04:46;98939.78;;;9.01;100.00
71299;BME280;59083;47.974;21.722;2022-12-10T03:08:04;98930.59;;;9.04;100.00
71299;BME280;59083;47.974;21.722;2022-12-10T03:11:12;98934.87;;;9.05;100.00
71299;BME280;59083;47.974;21.722;2022-12-10T03:14:24;98942.25;;;9.03;100.00
71299;BME280;59083;47.974;21.722;2022-12-10T03:17:28;98940.59;;;9.02;100.00
71299;BME280;59083;47.974;21.722;2022-12-10T03:20:34;98934.06;;;9.04;100.00
71299;BME280;59083;47.974;21.722;2022-12-10T03:23:40;98933.41;;;9.09;100.00
71299;BME280;59083;47.974;21.722;2022-12-10T03:26:45;98926.63;;;9.13;100.00
71299;BME280;59083;47.974;21.722;2022-12-10T03:29:50;98926.63;;;9.13;100.00
71299;BME280;59083;47.974;21.722;2022-12-10T03:32:53;98927.47;;;9.13;100.00
71299;BME280;59083;47.974;21.722;2022-12-10T03:35:55;98935.63;;;9.12;100.00
71299;BME280;59083;47.974;21.722;2022-12-10T03:38:57;98935.63;;;9.12;100.00
71299;BME280;59083;47.974;21.722;2022-12-10T03:41:58;98931.38;;;9.11;100.00
71299;BME280;59083;47.974;21.722;2022-12-10T03:45:00;98923.97;;;9.13;100.00
71299;BME280;59083;47.974;21.722;2022-12-10T03:48:01;98943.19;;;9.15;100.00
71299;BME280;59083;47.974;21.722;2022-12-10T03:51:02;98934.78;;;9.18;100.00
71299;BME280;59083;47.974;21.722;2022-12-10T03:54:04;98932.75;;;9.20;100.00
71299;BME280;59083;47.974;21.722;2022-12-10T03:57:05;98936.41;;;9.19;100.00
71299;BME280;59083;47.974;21.722;2022-12-10T04:00:07;98940.91;;;9.19;100.00
71299;BME280;59083;47.974;21.722;2022-12-10T04:03:12;98941.31;;;9.22;100.00
71299;BME280;59083;47.974;21.722;2022-12-10T04:06:16;98950.50;;;9.26;100.00
71299;BME280;59083;47.974;21.722;2022-12-10T04:09:18;98942.50;;;9.26;100.00
71299;BME280;59083;47.974;21.722;2022-12-10T04:12:19;98937.81;;;9.28;100.00
71299;BME280;59083;47.974;21.722;2022-12-10T04:15:20;98949.47;;;9.27;100.00
71299;BME280;59083;47.974;21.722;2022-12-10T04:18:40;98944.72;;;9.29;100.00
71299;BME280;59083;47.974;21.722;2022-12-10T04:21:42;98949.03;;;9.30;100.00
71299;BME280;59083;47.974;21.722;2022-12-10T04:25:04;98947.78;;;9.33;100.00
71299;BME280;59083;47.974;21.722;2022-12-10T04:28:08;98946.97;;;9.32;100.00
71299;BME280;59083;47.974;21.722;2022-12-10T04:31:09;98938.38;;;9.30;100.00
71299;BME280;59083;47.974;21.722;2022-12-10T04:34:10;98945.34;;;9.31;100.00
71299;BME280;59083;47.974;21.722;2022-12-10T04:37:14;98949.63;;;9.32;100.00
71299;BME280;59083;47.974;21.722;2022-12-10T04:40:16;98948.38;;;9.35;100.00
71299;BME280;59083;47.974;21.722;2022-12-10T04:43:17;98949.19;;;9.35;100.00
71299;BME280;59083;47.974;21.722;2022-12-10T04:46:18;98948.53;;;9.40;100.00
71299;BME280;59083;47.974;21.722;2022-12-10T04:49:20;98952.62;;;9.42;100.00
71299;BME280;59083;47.974;21.722;2022-12-10T04:52:21;98952.00;;;9.40;100.00
71299;BME280;59083;47.974;21.722;2022-12-10T04:55:22;98947.97;;;9.38;100.00
71299;BME280;59083;47.974;21.722;2022-12-10T04:58:23;98946.50;;;9.42;100.00
71299;BME280;59083;47.974;21.722;2022-12-10T05:01:25;98953.81;;;9.46;100.00
71299;BME280;59083;47.974;21.722;2022-12-10T05:04:26;98957.09;;;9.48;100.00
71299;BME280;59083;47.974;21.722;2022-12-10T05:07:28;98969.19;;;9.44;100.00
71299;BME280;59083;47.974;21.722;2022-12-10T05:10:29;98957.50;;;9.45;100.00
71299;BME280;59083;47.974;21.722;2022-12-10T05:13:30;98959.38;;;9.45;100.00
71299;BME280;59083;47.974;21.722;2022-12-10T05:16:33;98962.41;;;9.48;100.00
71299;BME280;59083;47.974;21.722;2022-12-10T05:19:34;98959.59;;;9.43;100.00
71299;BME280;59083;47.974;21.722;2022-12-10T05:22:35;98960.41;;;9.44;100.00
71299;BME280;59083;47.974;21.722;2022-12-10T05:29:01;98946.12;;;9.38;100.00
71299;BME280;59083;47.974;21.722;2022-12-10T05:32:03;98940.19;;;9.36;100.00
71299;BME280;59083;47.974;21.722;2022-12-10T05:35:05;98946.31;;;9.37;100.00
71299;BME280;59083;47.974;21.722;2022-12-10T05:38:06;98939.59;;;9.34;100.00
71299;BME280;59083;47.974;21.722;2022-12-10T05:41:16;98957.78;;;9.37;100.00
71299;BME280;59083;47.974;21.722;2022-12-10T05:44:18;98954.69;;;9.40;100.00
71299;BME280;59083;47.974;21.722;2022-12-10T05:47:19;98952.62;;;9.42;100.00
71299;BME280;59083;47.974;21.722;2022-12-10T05:50:20;98954.84;;;9.45;100.00
71299;BME280;59083;47.974;21.722;2022-12-10T05:53:22;98958.56;;;9.44;100.00
71299;BME280;59083;47.974;21.722;2022-12-10T05:56:24;98962.25;;;9.43;100.00
71299;BME280;59083;47.974;21.722;2022-12-10T05:59:26;98957.09;;;9.48;100.00
71299;BME280;59083;47.974;21.722;2022-12-10T06:02:28;98959.94;;;9.47;100.00
71299;BME280;59083;47.974;21.722;2022-12-10T06:05:36;98962.81;;;9.45;100.00
71299;BME280;59083;47.974;21.722;2022-12-10T06:08:39;98961.22;;;9.44;100.00
71299;BME280;59083;47.974;21.722;2022-12-10T06:11:41;98964.44;;;9.46;100.00
71299;BME280;59083;47.974;21.722;2022-12-10T06:14:43;98976.31;;;9.50;100.00
71299;BME280;59083;47.974;21.722;2022-12-10T06:17:44;98981.56;;;9.57;100.00
71299;BME280;59083;47.974;21.722;2022-12-10T06:20:45;98984.84;;;9.59;100.00
71299;BME280;59083;47.974;21.722;2022-12-10T06:23:47;98987.69;;;9.58;100.00
71299;BME280;59083;47.974;21.722;2022-12-10T06:26:48;98996.28;;;9.60;100.00
71299;BME280;59083;47.974;21.722;2022-12-10T06:29:50;99000.41;;;9.56;100.00
71299;BME280;59083;47.974;21.722;2022-12-10T06:32:51;99004.09;;;9.54;100.00
71299;BME280;59083;47.974;21.722;2022-12-10T06:35:52;99004.09;;;9.54;100.00
71299;BME280;59083;47.974;21.722;2022-12-10T06:38:53;99006.16;;;9.52;100.00
71299;BME280;59083;47.974;21.722;2022-12-10T06:41:55;99006.38;;;9.51;100.00
71299;BME280;59083;47.974;21.722;2022-12-10T06:44:56;99007.78;;;9.53;100.00
71299;BME280;59083;47.974;21.722;2022-12-10T06:47:57;99015.97;;;9.52;100.00
71299;BME280;59083;47.974;21.722;2022-12-10T06:50:59;99022.34;;;9.51;100.00
71299;BME280;59083;47.974;21.722;2022-12-10T06:54:00;99026.63;;;9.45;100.00
71299;BME280;59083;47.974;21.722;2022-12-10T06:57:01;99033.37;;;9.48;100.00
71299;BME280;59083;47.974;21.722;2022-12-10T07:00:04;99037.88;;;9.47;100.00
71299;BME280;59083;47.974;21.722;2022-12-10T07:03:05;99035.22;;;9.47;100.00
71299;BME280;59083;47.974;21.722;2022-12-10T07:06:08;99037.28;;;9.45;100.00
71299;BME280;59083;47.974;21.722;2022-12-10T07:09:09;99032.41;;;9.42;100.00
71299;BME280;59083;47.974;21.722;2022-12-10T07:12:10;99036.25;;;9.46;100.00
71299;BME280;59083;47.974;21.722;2022-12-10T07:15:12;99039.94;;;9.45;100.00
71299;BME280;59083;47.974;21.722;2022-12-10T07:18:13;99060.41;;;9.45;100.00
71299;BME280;59083;47.974;21.722;2022-12-10T07:21:34;99046.31;;;9.44;100.00
71299;BME280;59083;47.974;21.722;2022-12-10T07:24:36;99046.31;;;9.44;100.00
71299;BME280;59083;47.974;21.722;2022-12-10T07:27:37;99047.72;;;9.40;100.00
71299;BME280;59083;47.974;21.722;2022-12-10T07:30:38;99051.62;;;9.44;100.00
71299;BME280;59083;47.974;21.722;2022-12-10T07:33:40;99056.94;;;9.44;100.00
71299;BME280;59083;47.974;21.722;2022-12-10T07:36:41;99051.22;;;9.41;100.00
71299;BME280;59083;47.974;21.722;2022-12-10T07:39:42;99050.38;;;9.40;100.00
71299;BME280;59083;47.974;21.722;2022-12-10T07:42:44;99035.69;;;9.38;100.00
71299;BME280;59083;47.974;21.722;2022-12-10T07:45:45;99045.06;;;9.40;100.00
71299;BME280;59083;47.974;21.722;2022-12-10T07:48:47;99053.28;;;9.39;100.00
71299;BME280;59083;47.974;21.722;2022-12-10T07:51:50;99054.09;;;9.39;100.00
71299;BME280;59083;47.974;21.722;2022-12-10T07:54:52;99066.78;;;9.37;100.00
71299;BME280;59083;47.974;21.722;2022-12-10T07:57:53;99066.59;;;9.32;100.00
71299;BME280;59083;47.974;21.722;2022-12-10T08:00:54;99079.09;;;9.32;100.00
71299;BME280;59083;47.974;21.722;2022-12-10T08:03:56;99072.50;;;9.34;100.00
71299;BME280;59083;47.974;21.722;2022-12-10T08:06:57;99072.97;;;9.25;100.00
71299;BME280;59083;47.974;21.722;2022-12-10T08:09:59;99072.97;;;9.25;100.00
71299;BME280;59083;47.974;21.722;2022-12-10T08:13:00;99081.97;;;9.17;100.00
71299;BME280;59083;47.974;21.722;2022-12-10T08:16:07;99080.78;;;9.13;100.00
71299;BME280;59083;47.974;21.722;2022-12-10T08:19:08;99077.94;;;9.08;100.00
71299;BME280;59083;47.974;21.722;2022-12-10T08:22:10;99084.69;;;9.10;100.00
71299;BME280;59083;47.974;21.722;2022-12-10T08:25:11;99086.91;;;9.13;100.00
71299;BME280;59083;47.974;21.722;2022-12-10T08:28:12;99081.22;;;9.03;100.00
71299;BME280;59083;47.974;21.722;2022-12-10T08:31:15;99081.03;;;9.05;100.00
71299;BME280;59083;47.974;21.722;2022-12-10T08:34:18;99089.00;;;9.05;100.00
71299;BME280;59083;47.974;21.722;2022-12-10T08:37:20;99093.50;;;9.04;100.00
71299;BME280;59083;47.974;21.722;2022-12-10T08:40:21;99107.81;;;9.03;100.00
71299;BME280;59083;47.974;21.722;2022-12-10T08:43:22;99109.06;;;8.88;100.00
71299;BME280;59083;47.974;21.722;2022-12-10T08:46:24;99108.28;;;8.81;100.00
71299;BME280;59083;47.974;21.722;2022-12-10T08:49:26;99113.59;;;8.81;100.00
71299;BME280;59083;47.974;21.722;2022-12-10T08:52:29;99110.72;;;8.76;100.00
71299;BME280;59083;47.974;21.722;2022-12-10T08:55:30;99107.84;;;8.77;100.00
71299;BME280;59083;47.974;21.722;2022-12-10T08:58:32;99102.56;;;8.70;100.00
71299;BME280;59083;47.974;21.722;2022-12-10T09:01:33;99099.28;;;8.68;100.00
71299;BME280;59083;47.974;21.722;2022-12-10T09:04:34;99097.66;;;8.67;100.00
71299;BME280;59083;47.974;21.722;2022-12-10T09:07:35;99088.88;;;8.60;100.00
71299;BME280;59083;47.974;21.722;2022-12-10T09:10:38;99088.69;;;8.55;100.00
71299;BME280;59083;47.974;21.722;2022-12-10T09:13:39;99088.69;;;8.55;100.00
71299;BME280;59083;47.974;21.722;2022-12-10T09:16:40;99094.00;;;8.55;100.00
71299;BME280;59083;47.974;21.722;2022-12-10T09:19:42;99091.97;;;8.57;100.00
71299;BME280;59083;47.974;21.722;2022-12-10T09:22:44;99094.41;;;8.52;100.00
71299;BME280;59083;47.974;21.722;2022-12-10T09:25:45;99088.50;;;8.50;100.00
71299;BME280;59083;47.974;21.722;2022-12-10T09:28:47;99095.44;;;8.51;100.00
71299;BME280;59083;47.974;21.722;2022-12-10T09:31:51;99090.75;;;8.53;100.00
71299;BME280;59083;47.974;21.722;2022-12-10T09:34:53;99094.41;;;8.52;100.00
71299;BME280;59083;47.974;21.722;2022-12-10T09:37:54;99085.63;;;8.45;100.00
71299;BME280;59083;47.974;21.722;2022-12-10T09:41:06;99089.94;;;8.46;100.00
71299;BME280;59083;47.974;21.722;2022-12-10T09:44:47;99082.97;;;8.45;100.00
71299;BME280;59083;47.974;21.722;2022-12-10T09:48:10;99076.84;;;8.38;100.00
71299;BME280;59083;47.974;21.722;2022-12-10T09:51:29;99082.75;;;8.01;100.00
71299;BME280;59083;47.974;21.722;2022-12-10T09:54:35;99084.94;;;7.64;100.00
71299;BME280;59083;47.974;21.722;2022-12-10T09:57:42;99074.47;;;7.43;100.00
71299;BME280;59083;47.974;21.722;2022-12-10T10:00:46;99084.00;;;7.31;100.00
71299;BME280;59083;47.974;21.722;2022-12-10T10:03:48;99098.91;;;7.32;100.00
71299;BME280;59083;47.974;21.722;2022-12-10T10:06:49;99104.31;;;7.11;100.00
71299;BME280;59083;47.974;21.722;2022-12-10T10:09:55;99098.16;;;7.03;100.00
71299;BME280;59083;47.974;21.722;2022-12-10T10:19:30;99093.28;;;6.66;100.00
71299;BME280;59083;47.974;21.722;2022-12-10T10:22:34;99086.13;;;6.60;100.00
71299;BME280;59083;47.974;21.722;2022-12-10T10:25:35;99094.09;;;6.39;100.00
71299;BME280;59083;47.974;21.722;2022-12-10T10:28:39;99092.03;;;6.34;100.00
71299;BME280;59083;47.974;21.722;2022-12-10T10:31:42;99095.88;;;6.32;100.00
71299;BME280;59083;47.974;21.722;2022-12-10T10:34:44;99108.00;;;6.19;100.00
71299;BME280;59083;47.974;21.722;2022-12-10T10:37:46;99097.19;;;6.21;100.00
71299;BME280;59083;47.974;21.722;2022-12-10T10:40:53;99095.59;;;6.20;100.00
71299;BME280;59083;47.974;21.722;2022-12-10T10:44:00;99087.03;;;6.18;100.00
71299;BME280;59083;47.974;21.722;2022-12-10T10:47:24;99087.34;;;6.08;100.00
71299;BME280;59083;47.974;21.722;2022-12-10T10:50:26;99074.56;;;6.12;100.00
71299;BME280;59083;47.974;21.722;2022-12-10T10:56:43;99067.84;;;6.09;100.00
71299;BME280;59083;47.974;21.722;2022-12-10T10:59:45;99056.81;;;6.06;100.00
71299;BME280;59083;47.974;21.722;2022-12-10T11:02:46;99043.41;;;6.07;100.00
71299;BME280;59083;47.974;21.722;2022-12-10T11:05:48;99060.72;;;5.89;100.00
71299;BME280;59083;47.974;21.722;2022-12-10T11:08:51;99052.09;;;5.80;100.00
71299;BME280;59083;47.974;21.722;2022-12-10T11:12:07;99060.25;;;5.85;100.00
71299;BME280;59083;47.974;21.722;2022-12-10T11:18:33;99067.12;;;5.79;100.00
71299;BME280;59083;47.974;21.722;2022-12-10T11:21:35;99065.84;;;5.75;100.00
71299;BME280;59083;47.974;21.722;2022-12-10T11:24:36;99065.06;;;5.75;100.00
71299;BME280;59083;47.974;21.722;2022-12-10T11:27:59;99058.56;;;5.77;100.00
71299;BME280;59083;47.974;21.722;2022-12-10T11:31:18;99057.63;;;5.64;100.00
71299;BME280;59083;47.974;21.722;2022-12-10T11:48:31;99059.75;;;5.54;100.00
71299;BME280;59083;47.974;21.722;2022-12-10T11:52:09;99057.97;;;5.39;100.00
71299;BME280;59083;47.974;21.722;2022-12-10T12:01:59;99048.56;;;5.52;100.00
71299;BME280;59083;47.974;21.722;2022-12-10T12:05:36;99049.63;;;5.57;100.00
71299;BME280;59083;47.974;21.722;2022-12-10T12:12:15;99051.38;;;5.50;100.00
71299;BME280;59083;47.974;21.722;2022-12-10T12:15:34;99046.75;;;5.52;100.00
71299;BME280;59083;47.974;21.722;2022-12-10T12:19:03;99042.00;;;5.48;100.00
71299;BME280;59083;47.974;21.722;2022-12-10T12:25:35;99040.75;;;5.44;100.00
71299;BME280;59083;47.974;21.722;2022-12-10T12:28:46;99036.28;;;5.44;100.00
71299;BME280;59083;47.974;21.722;2022-12-10T12:32:02;99038.22;;;5.35;100.00
71299;BME280;59083;47.974;21.722;2022-12-10T12:35:22;99040.66;;;5.16;100.00
71299;BME280;59083;47.974;21.722;2022-12-10T12:38:30;99030.44;;;5.13;100.00
71299;BME280;59083;47.974;21.722;2022-12-10T12:45:03;99030.25;;;5.14;100.00
71299;BME280;59083;47.974;21.722;2022-12-10T12:55:05;99022.91;;;5.10;100.00
71299;BME280;59083;47.974;21.722;2022-12-10T12:58:22;99030.81;;;5.10;100.00
71299;BME280;59083;47.974;21.722;2022-12-10T13:01:34;99025.84;;;5.00;100.00
71299;BME280;59083;47.974;21.722;2022-12-10T13:04:37;99023.56;;;4.97;100.00
71299;BME280;59083;47.974;21.722;2022-12-10T13:07:39;99019.66;;;4.93;100.00
71299;BME280;59083;47.974;21.722;2022-12-10T13:17:24;99020.94;;;4.97;100.00
71299;BME280;59083;47.974;21.722;2022-12-10T13:23:32;99014.12;;;4.88;100.00
71299;BME280;59083;47.974;21.722;2022-12-10T13:26:35;99015.38;;;4.92;100.00
71299;BME280;59083;47.974;21.722;2022-12-10T13:29:55;99016.22;;;4.92;100.00
71299;BME280;59083;47.974;21.722;2022-12-10T13:33:12;99013.94;;;4.75;100.00
71299;BME280;59083;47.974;21.722;2022-12-10T13:36:20;99003.78;;;4.72;100.00
71299;BME280;59083;47.974;21.722;2022-12-10T13:42:29;99021.59;;;4.70;100.00
71299;BME280;59083;47.974;21.722;2022-12-10T13:49:27;99025.69;;;4.57;100.00
71299;BME280;59083;47.974;21.722;2022-12-10T13:52:51;99016.72;;;4.67;100.00
71299;BME280;59083;47.974;21.722;2022-12-10T14:00:01;99019.44;;;4.58;100.00
71299;BME280;59083;47.974;21.722;2022-12-10T14:06:43;99002.34;;;4.54;100.00
71299;BME280;59083;47.974;21.722;2022-12-10T14:09:50;98991.78;;;4.54;100.00
71299;BME280;59083;47.974;21.722;2022-12-10T14:12:53;98968.78;;;4.48;100.00
71299;BME280;59083;47.974;21.722;2022-12-10T14:15:58;98972.41;;;4.47;100.00
71299;BME280;59083;47.974;21.722;2022-12-10T14:19:06;98969.50;;;4.42;100.00
71299;BME280;59083;47.974;21.722;2022-12-10T14:22:16;98970.06;;;4.38;100.00
71299;BME280;59083;47.974;21.722;2022-12-10T14:25:22;98975.50;;;4.36;100.00
71299;BME280;59083;47.974;21.722;2022-12-10T14:28:23;98975.06;;;4.33;100.00
71299;BME280;59083;47.974;21.722;2022-12-10T14:31:33;98974.13;;;4.40;100.00
71299;BME280;59083;47.974;21.722;2022-12-10T14:34:36;98975.59;;;4.28;100.00
71299;BME280;59083;47.974;21.722;2022-12-10T14:37:40;98966.50;;;4.16;100.00
71299;BME280;59083;47.974;21.722;2022-12-10T14:40:43;98975.31;;;4.23;100.00
71299;BME280;59083;47.974;21.722;2022-12-10T14:43:44;98963.13;;;4.22;100.00
71299;BME280;59083;47.974;21.722;2022-12-10T14:46:50;98954.22;;;4.23;100.00
71299;BME280;59083;47.974;21.722;2022-12-10T14:49:54;98947.97;;;4.24;100.00
71299;BME280;59083;47.974;21.722;2022-12-10T14:52:55;98953.25;;;4.24;100.00
71299;BME280;59083;47.974;21.722;2022-12-10T14:55:59;98948.34;;;4.21;100.00
71299;BME280;59083;47.974;21.722;2022-12-10T14:59:15;98944.16;;;4.12;100.00
71299;BME280;59083;47.974;21.722;2022-12-10T15:02:30;98947.06;;;4.17;100.00
71299;BME280;59083;47.974;21.722;2022-12-10T15:05:33;98947.69;;;4.19;100.00
71299;BME280;59083;47.974;21.722;2022-12-10T15:08:36;98942.69;;;4.24;100.00
71299;BME280;59083;47.974;21.722;2022-12-10T15:11:39;98947.88;;;4.18;100.00
71299;BME280;59083;47.974;21.722;2022-12-10T15:14:42;98940.13;;;4.16;100.00
71299;BME280;59083;47.974;21.722;2022-12-10T15:21:04;98934.31;;;4.06;100.00
71299;BME280;59083;47.974;21.722;2022-12-10T15:24:27;98927.34;;;4.13;100.00
71299;BME280;59083;47.974;21.722;2022-12-10T15:27:33;98929.53;;;4.09;100.00
71299;BME280;59083;47.974;21.722;2022-12-10T15:30:37;98924.97;;;4.03;100.00
71299;BME280;59083;47.974;21.722;2022-12-10T15:34:00;98924.88;;;3.97;100.00
71299;BME280;59083;47.974;21.722;2022-12-10T15:37:03;98915.59;;;4.01;100.00
71299;BME280;59083;47.974;21.722;2022-12-10T15:40:07;98930.97;;;3.97;100.00
71299;BME280;59083;47.974;21.722;2022-12-10T15:43:30;98933.59;;;3.97;100.00
71299;BME280;59083;47.974;21.722;2022-12-10T15:46:31;98935.41;;;3.97;100.00
71299;BME280;59083;47.974;21.722;2022-12-10T15:49:33;98933.50;;;4.05;100.00
71299;BME280;59083;47.974;21.722;2022-12-10T15:52:34;98941.41;;;4.05;100.00
71299;BME280;59083;47.974;21.722;2022-12-10T15:55:35;98943.88;;;4.07;100.00
71299;BME280;59083;47.974;21.722;2022-12-10T15:58:36;98945.16;;;3.96;100.00
71299;BME280;59083;47.974;21.722;2022-12-10T16:01:37;98946.22;;;4.02;100.00
71299;BME280;59083;47.974;21.722;2022-12-10T16:04:39;98928.88;;;3.93;100.00
71299;BME280;59083;47.974;21.722;2022-12-10T16:07:40;98923.63;;;3.93;100.00
71299;BME280;59083;47.974;21.722;2022-12-10T16:10:42;98921.50;;;3.88;100.00
71299;BME280;59083;47.974;21.722;2022-12-10T16:13:49;98901.78;;;3.99;100.00
71299;BME280;59083;47.974;21.722;2022-12-10T16:16:52;98893.06;;;3.84;100.00
71299;BME280;59083;47.974;21.722;2022-12-10T16:19:56;98885.63;;;3.87;100.00
71299;BME280;59083;47.974;21.722;2022-12-10T16:22:59;98883.53;;;3.83;100.00
71299;BME280;59083;47.974;21.722;2022-12-10T16:26:01;98885.81;;;3.86;100.00
71299;BME280;59083;47.974;21.722;2022-12-10T16:29:02;98888.06;;;3.89;100.00
71299;BME280;59083;47.974;21.722;2022-12-10T16:32:04;98894.31;;;3.88;100.00
71299;BME280;59083;47.974;21.722;2022-12-10T16:35:05;98902.69;;;3.77;100.00
71299;BME280;59083;47.974;21.722;2022-12-10T16:38:06;98890.16;;;3.79;100.00
71299;BME280;59083;47.974;21.722;2022-12-10T16:41:18;98887.16;;;3.82;100.00
71299;BME280;59083;47.974;21.722;2022-12-10T16:44:20;98891.06;;;3.86;100.00
71299;BME280;59083;47.974;21.722;2022-12-10T16:47:21;98875.44;;;3.84;100.00
71299;BME280;59083;47.974;21.722;2022-12-10T16:50:23;98873.97;;;3.82;100.00
71299;BME280;59083;47.974;21.722;2022-12-10T16:53:27;98878.44;;;3.81;100.00
71299;BME280;59083;47.974;21.722;2022-12-10T16:56:28;98879.25;;;3.82;100.00
71299;BME280;59083;47.974;21.722;2022-12-10T16:59:29;98886.59;;;3.71;100.00
71299;BME280;59083;47.974;21.722;2022-12-10T17:02:30;98877.53;;;3.74;100.00
71299;BME280;59083;47.974;21.722;2022-12-10T17:05:38;98876.06;;;3.71;100.00
71299;BME280;59083;47.974;21.722;2022-12-10T17:08:40;98866.63;;;3.62;100.00
71299;BME280;59083;47.974;21.722;2022-12-10T17:11:42;98872.53;;;3.64;100.00
71299;BME280;59083;47.974;21.722;2022-12-10T17:14:46;98877.50;;;3.59;100.00
71299;BME280;59083;47.974;21.722;2022-12-10T17:17:47;98876.88;;;3.57;100.00
71299;BME280;59083;47.974;21.722;2022-12-10T17:20:49;98873.72;;;3.62;100.00
71299;BME280;59083;47.974;21.722;2022-12-10T17:23:50;98867.63;;;3.61;100.00
71299;BME280;59083;47.974;21.722;2022-12-10T17:26:52;98877.81;;;3.64;100.00
71299;BME280;59083;47.974;21.722;2022-12-10T17:29:56;98875.34;;;3.63;100.00
71299;BME280;59083;47.974;21.722;2022-12-10T17:32:57;98873.53;;;3.63;100.00
71299;BME280;59083;47.974;21.722;2022-12-10T17:35:58;98891.97;;;3.63;100.00
71299;BME280;59083;47.974;21.722;2022-12-10T17:39:00;98878.44;;;3.66;100.00
71299;BME280;59083;47.974;21.722;2022-12-10T17:42:01;98883.16;;;3.71;100.00